Waterloo Regional Airport Waterloo US
ICAO: KALO
IATA: ALO
Category: Medium
Scheduled Services: Yes

Elevation: 873 ft
TransAlt. 18000 ft.

Airport Communications:
APP/DEP:118.9
ATIS:120.65
CTAF:118.1
GND:121.9
ARNG OPS:36.7
FORT DODGE RDO:122.05
TWR:118.1
UNICOM:122.95

KALO Zoom In..

If you have problems with the map follow the link
https://www.worldairports.se/pages/airport.php?
ICAO=KALO

Runways:

(A) RW 06 length 5400 ft width 130 ft
---- / hdg 65

(B) RW 12 length 8399 ft width 150 ft
ILS 111.70 / hdg 125

(C) RW 18 length 6003 ft width 150 ft
---- / hdg 185

(D) RW 24 length 5400 ft width 130 ft
---- / hdg 245

(E) RW 30 length 8399 ft width 150 ft
---- / hdg 305

(F) RW 36 length 6003 ft width 150 ft
---- / hdg 5

Location; KALO
Day. 22 / Time. 09.54 Zulu
* Altimeter: 30.06
* Temperature: -03° c. -26.6°f.
* Wind from: 170° Speed 12 kn.
Dewpoint: -07° c.
Visibility: 10 Statute Miles.
Clouds: Overcast 7500 ft.

KALO 220954Z AUTO 17012KT 10SM OVC075 M03/M07 A3006 RMK AO2 SLP195 T10331072


Wind From 170°
Speed 12 kn.

 
 
jpsmedia worldairports.se 2020   terms of use